sensor_id;sensor_type;location;lat;lon;timestamp;temperature;humidity
21895;DHT22;11112;51.270;7.224;2022-10-31T00:01:32;16.60;94.30
21895;DHT22;11112;51.270;7.224;2022-10-31T00:04:01;16.60;94.30
21895;DHT22;11112;51.270;7.224;2022-10-31T00:06:29;16.60;94.30
21895;DHT22;11112;51.270;7.224;2022-10-31T00:08:58;16.60;94.30
21895;DHT22;11112;51.270;7.224;2022-10-31T00:11:28;16.60;94.30
21895;DHT22;11112;51.270;7.224;2022-10-31T00:13:57;16.60;94.40
21895;DHT22;11112;51.270;7.224;2022-10-31T00:16:25;16.60;94.30
21895;DHT22;11112;51.270;7.224;2022-10-31T00:18:55;16.60;94.70
21895;DHT22;11112;51.270;7.224;2022-10-31T00:21:25;16.60;94.30
21895;DHT22;11112;51.270;7.224;2022-10-31T00:23:53;16.50;94.30
21895;DHT22;11112;51.270;7.224;2022-10-31T00:26:20;16.50;94.40
21895;DHT22;11112;51.270;7.224;2022-10-31T00:28:49;16.50;94.80
21895;DHT22;11112;51.270;7.224;2022-10-31T00:31:16;16.50;94.50
21895;DHT22;11112;51.270;7.224;2022-10-31T00:33:46;16.50;94.50
21895;DHT22;11112;51.270;7.224;2022-10-31T00:36:15;16.40;94.40
21895;DHT22;11112;51.270;7.224;2022-10-31T00:38:45;16.40;94.60
21895;DHT22;11112;51.270;7.224;2022-10-31T00:41:14;16.40;94.60
21895;DHT22;11112;51.270;7.224;2022-10-31T00:43:42;16.40;94.60
21895;DHT22;11112;51.270;7.224;2022-10-31T00:46:13;16.40;94.40
21895;DHT22;11112;51.270;7.224;2022-10-31T00:48:41;16.30;94.40
21895;DHT22;11112;51.270;7.224;2022-10-31T00:51:08;16.40;94.40
21895;DHT22;11112;51.270;7.224;2022-10-31T00:53:36;16.40;94.40
21895;DHT22;11112;51.270;7.224;2022-10-31T00:56:04;16.40;94.40
21895;DHT22;11112;51.270;7.224;2022-10-31T00:58:33;16.30;94.40
21895;DHT22;11112;51.270;7.224;2022-10-31T01:01:03;16.40;94.50
21895;DHT22;11112;51.270;7.224;2022-10-31T01:03:33;16.40;94.50
21895;DHT22;11112;51.270;7.224;2022-10-31T01:06:02;16.30;94.40
21895;DHT22;11112;51.270;7.224;2022-10-31T01:08:31;16.30;94.50
21895;DHT22;11112;51.270;7.224;2022-10-31T01:11:00;16.40;94.50
21895;DHT22;11112;51.270;7.224;2022-10-31T01:13:29;16.30;94.50
21895;DHT22;11112;51.270;7.224;2022-10-31T01:15:57;16.40;94.50
21895;DHT22;11112;51.270;7.224;2022-10-31T01:18:26;16.30;94.40
21895;DHT22;11112;51.270;7.224;2022-10-31T01:21:00;16.30;94.50
21895;DHT22;11112;51.270;7.224;2022-10-31T01:23:29;16.30;94.60
21895;DHT22;11112;51.270;7.224;2022-10-31T01:26:03;16.30;94.60
21895;DHT22;11112;51.270;7.224;2022-10-31T01:28:32;16.30;94.70
21895;DHT22;11112;51.270;7.224;2022-10-31T01:31:01;16.30;94.50
21895;DHT22;11112;51.270;7.224;2022-10-31T01:33:29;16.30;94.60
21895;DHT22;11112;51.270;7.224;2022-10-31T01:35:57;16.30;94.50
21895;DHT22;11112;51.270;7.224;2022-10-31T01:38:26;16.30;94.60
21895;DHT22;11112;51.270;7.224;2022-10-31T01:40:54;16.40;94.50
21895;DHT22;11112;51.270;7.224;2022-10-31T01:43:22;16.30;94.60
21895;DHT22;11112;51.270;7.224;2022-10-31T01:45:52;16.40;94.70
21895;DHT22;11112;51.270;7.224;2022-10-31T01:48:26;16.40;94.70
21895;DHT22;11112;51.270;7.224;2022-10-31T01:50:56;16.40;94.60
21895;DHT22;11112;51.270;7.224;2022-10-31T01:53:25;16.30;94.80
21895;DHT22;11112;51.270;7.224;2022-10-31T01:55:54;16.30;94.70
21895;DHT22;11112;51.270;7.224;2022-10-31T01:58:24;16.30;94.90
21895;DHT22;11112;51.270;7.224;2022-10-31T02:00:56;16.30;94.90
21895;DHT22;11112;51.270;7.224;2022-10-31T02:03:25;16.30;94.70
21895;DHT22;11112;51.270;7.224;2022-10-31T02:05:54;16.20;94.70
21895;DHT22;11112;51.270;7.224;2022-10-31T02:08:27;16.30;94.90
21895;DHT22;11112;51.270;7.224;2022-10-31T02:10:56;16.20;94.80
21895;DHT22;11112;51.270;7.224;2022-10-31T02:13:28;16.20;94.90
21895;DHT22;11112;51.270;7.224;2022-10-31T02:15:58;16.20;95.00
21895;DHT22;11112;51.270;7.224;2022-10-31T02:18:27;16.20;94.90
21895;DHT22;11112;51.270;7.224;2022-10-31T02:21:06;16.20;94.90
21895;DHT22;11112;51.270;7.224;2022-10-31T02:24:20;16.20;94.90
21895;DHT22;11112;51.270;7.224;2022-10-31T02:30:14;16.10;94.60
21895;DHT22;11112;51.270;7.224;2022-10-31T02:32:51;16.10;94.70
21895;DHT22;11112;51.270;7.224;2022-10-31T02:35:31;16.10;94.80
21895;DHT22;11112;51.270;7.224;2022-10-31T02:38:10;16.10;94.70
21895;DHT22;11112;51.270;7.224;2022-10-31T02:40:48;16.10;94.80
21895;DHT22;11112;51.270;7.224;2022-10-31T02:43:21;16.10;94.80
21895;DHT22;11112;51.270;7.224;2022-10-31T02:45:57;16.00;94.70
21895;DHT22;11112;51.270;7.224;2022-10-31T02:48:29;16.00;94.70
21895;DHT22;11112;51.270;7.224;2022-10-31T02:51:00;16.10;94.80
21895;DHT22;11112;51.270;7.224;2022-10-31T02:53:32;16.10;94.80
21895;DHT22;11112;51.270;7.224;2022-10-31T02:56:04;16.10;94.80
21895;DHT22;11112;51.270;7.224;2022-10-31T02:58:36;16.10;94.80
21895;DHT22;11112;51.270;7.224;2022-10-31T03:01:39;16.10;94.70
21895;DHT22;11112;51.270;7.224;2022-10-31T03:04:27;16.00;94.70
21895;DHT22;11112;51.270;7.224;2022-10-31T03:07:23;16.10;94.70
21895;DHT22;11112;51.270;7.224;2022-10-31T03:10:03;16.00;94.60
21895;DHT22;11112;51.270;7.224;2022-10-31T03:12:38;15.90;94.40
21895;DHT22;11112;51.270;7.224;2022-10-31T03:15:13;15.90;94.70
21895;DHT22;11112;51.270;7.224;2022-10-31T03:17:52;15.90;94.70
21895;DHT22;11112;51.270;7.224;2022-10-31T03:20:30;15.80;94.70
21895;DHT22;11112;51.270;7.224;2022-10-31T03:23:03;15.80;94.80
21895;DHT22;11112;51.270;7.224;2022-10-31T03:25:32;15.80;94.70
21895;DHT22;11112;51.270;7.224;2022-10-31T03:28:02;15.80;94.80
21895;DHT22;11112;51.270;7.224;2022-10-31T03:30:34;15.80;94.80
21895;DHT22;11112;51.270;7.224;2022-10-31T03:33:04;15.80;94.80
21895;DHT22;11112;51.270;7.224;2022-10-31T03:35:36;15.80;94.80
21895;DHT22;11112;51.270;7.224;2022-10-31T03:38:05;15.80;94.80
21895;DHT22;11112;51.270;7.224;2022-10-31T03:40:35;15.70;95.30
21895;DHT22;11112;51.270;7.224;2022-10-31T03:43:07;15.70;95.20
21895;DHT22;11112;51.270;7.224;2022-10-31T03:45:41;15.70;95.00
21895;DHT22;11112;51.270;7.224;2022-10-31T03:48:11;15.60;95.00
21895;DHT22;11112;51.270;7.224;2022-10-31T03:50:47;15.70;95.20
21895;DHT22;11112;51.270;7.224;2022-10-31T03:53:25;15.70;95.40
21895;DHT22;11112;51.270;7.224;2022-10-31T03:55:59;15.70;95.00
21895;DHT22;11112;51.270;7.224;2022-10-31T03:58:33;15.60;95.00
21895;DHT22;11112;51.270;7.224;2022-10-31T04:01:06;15.60;95.10
21895;DHT22;11112;51.270;7.224;2022-10-31T04:03:37;15.60;95.20
21895;DHT22;11112;51.270;7.224;2022-10-31T04:06:11;15.60;95.00
21895;DHT22;11112;51.270;7.224;2022-10-31T04:08:43;15.60;94.90
21895;DHT22;11112;51.270;7.224;2022-10-31T04:11:13;15.60;95.10
21895;DHT22;11112;51.270;7.224;2022-10-31T04:13:42;15.60;95.00
21895;DHT22;11112;51.270;7.224;2022-10-31T04:16:11;15.50;95.00
21895;DHT22;11112;51.270;7.224;2022-10-31T04:18:40;15.50;95.10
21895;DHT22;11112;51.270;7.224;2022-10-31T04:21:09;15.50;95.00
21895;DHT22;11112;51.270;7.224;2022-10-31T04:23:36;15.50;95.00
21895;DHT22;11112;51.270;7.224;2022-10-31T04:26:03;15.60;94.90
21895;DHT22;11112;51.270;7.224;2022-10-31T04:28:32;15.50;94.70
21895;DHT22;11112;51.270;7.224;2022-10-31T04:31:01;15.50;94.90
21895;DHT22;11112;51.270;7.224;2022-10-31T04:33:29;15.50;95.00
21895;DHT22;11112;51.270;7.224;2022-10-31T04:35:57;15.50;95.00
21895;DHT22;11112;51.270;7.224;2022-10-31T04:38:26;15.50;95.20
21895;DHT22;11112;51.270;7.224;2022-10-31T04:40:56;15.50;95.30
21895;DHT22;11112;51.270;7.224;2022-10-31T04:43:23;15.50;95.30
21895;DHT22;11112;51.270;7.224;2022-10-31T04:45:50;15.50;95.10
21895;DHT22;11112;51.270;7.224;2022-10-31T04:48:18;15.50;95.00
21895;DHT22;11112;51.270;7.224;2022-10-31T04:50:45;15.40;95.10
21895;DHT22;11112;51.270;7.224;2022-10-31T04:53:12;15.40;95.20
21895;DHT22;11112;51.270;7.224;2022-10-31T04:55:41;15.40;95.10
21895;DHT22;11112;51.270;7.224;2022-10-31T04:58:08;15.40;95.10
21895;DHT22;11112;51.270;7.224;2022-10-31T05:00:35;15.40;94.80
21895;DHT22;11112;51.270;7.224;2022-10-31T05:03:04;15.40;95.00
21895;DHT22;11112;51.270;7.224;2022-10-31T05:05:32;15.40;95.00
21895;DHT22;11112;51.270;7.224;2022-10-31T05:08:00;15.40;94.90
21895;DHT22;11112;51.270;7.224;2022-10-31T05:10:29;15.40;94.90
21895;DHT22;11112;51.270;7.224;2022-10-31T05:13:00;15.40;94.90
21895;DHT22;11112;51.270;7.224;2022-10-31T05:15:28;15.40;94.90
21895;DHT22;11112;51.270;7.224;2022-10-31T05:17:58;15.50;95.00
21895;DHT22;11112;51.270;7.224;2022-10-31T05:20:27;15.50;94.90
21895;DHT22;11112;51.270;7.224;2022-10-31T05:22:58;15.40;94.80
21895;DHT22;11112;51.270;7.224;2022-10-31T05:25:27;15.40;94.80
21895;DHT22;11112;51.270;7.224;2022-10-31T05:27:57;15.40;94.70
21895;DHT22;11112;51.270;7.224;2022-10-31T05:30:27;15.40;94.70
21895;DHT22;11112;51.270;7.224;2022-10-31T05:32:56;15.40;94.80
21895;DHT22;11112;51.270;7.224;2022-10-31T05:35:26;15.30;94.60
21895;DHT22;11112;51.270;7.224;2022-10-31T05:37:54;15.40;94.80
21895;DHT22;11112;51.270;7.224;2022-10-31T05:40:21;15.30;94.70
21895;DHT22;11112;51.270;7.224;2022-10-31T05:42:51;15.40;94.80
21895;DHT22;11112;51.270;7.224;2022-10-31T05:45:21;15.40;94.90
21895;DHT22;11112;51.270;7.224;2022-10-31T05:47:52;15.40;94.90
21895;DHT22;11112;51.270;7.224;2022-10-31T05:50:20;15.40;94.90
21895;DHT22;11112;51.270;7.224;2022-10-31T05:52:54;15.30;95.00
21895;DHT22;11112;51.270;7.224;2022-10-31T05:55:26;15.40;95.00
21895;DHT22;11112;51.270;7.224;2022-10-31T05:57:53;15.30;95.10
21895;DHT22;11112;51.270;7.224;2022-10-31T06:00:23;15.30;95.20
21895;DHT22;11112;51.270;7.224;2022-10-31T06:02:58;15.40;95.20
21895;DHT22;11112;51.270;7.224;2022-10-31T06:05:26;15.40;95.20
21895;DHT22;11112;51.270;7.224;2022-10-31T06:07:53;15.30;95.10
21895;DHT22;11112;51.270;7.224;2022-10-31T06:10:21;15.40;95.00
21895;DHT22;11112;51.270;7.224;2022-10-31T06:12:48;15.30;94.90
21895;DHT22;11112;51.270;7.224;2022-10-31T06:15:17;15.40;95.00
21895;DHT22;11112;51.270;7.224;2022-10-31T06:17:46;15.30;95.00
21895;DHT22;11112;51.270;7.224;2022-10-31T06:20:14;15.30;94.90
21895;DHT22;11112;51.270;7.224;2022-10-31T06:22:43;15.30;95.00
21895;DHT22;11112;51.270;7.224;2022-10-31T06:25:11;15.30;94.90
21895;DHT22;11112;51.270;7.224;2022-10-31T06:27:38;15.30;94.90
21895;DHT22;11112;51.270;7.224;2022-10-31T06:30:06;15.30;94.90
21895;DHT22;11112;51.270;7.224;2022-10-31T06:32:37;15.30;94.90
21895;DHT22;11112;51.270;7.224;2022-10-31T06:35:07;15.40;94.90
21895;DHT22;11112;51.270;7.224;2022-10-31T06:37:34;15.40;94.80
21895;DHT22;11112;51.270;7.224;2022-10-31T06:40:01;15.30;94.80
21895;DHT22;11112;51.270;7.224;2022-10-31T06:42:29;15.30;94.80
21895;DHT22;11112;51.270;7.224;2022-10-31T06:44:56;15.40;94.90
21895;DHT22;11112;51.270;7.224;2022-10-31T06:47:23;15.30;94.80
21895;DHT22;11112;51.270;7.224;2022-10-31T06:49:51;15.30;94.80
21895;DHT22;11112;51.270;7.224;2022-10-31T06:52:19;15.30;94.80
21895;DHT22;11112;51.270;7.224;2022-10-31T06:54:48;15.30;94.90
21895;DHT22;11112;51.270;7.224;2022-10-31T06:57:15;15.30;94.90
21895;DHT22;11112;51.270;7.224;2022-10-31T06:59:43;15.30;95.00
21895;DHT22;11112;51.270;7.224;2022-10-31T07:02:10;15.30;95.00
21895;DHT22;11112;51.270;7.224;2022-10-31T07:04:38;15.30;95.00
21895;DHT22;11112;51.270;7.224;2022-10-31T07:07:05;15.30;94.90
21895;DHT22;11112;51.270;7.224;2022-10-31T07:09:34;15.30;95.00
21895;DHT22;11112;51.270;7.224;2022-10-31T07:12:01;15.40;95.00
21895;DHT22;11112;51.270;7.224;2022-10-31T07:14:29;15.30;95.00
21895;DHT22;11112;51.270;7.224;2022-10-31T07:16:56;15.40;95.00
21895;DHT22;11112;51.270;7.224;2022-10-31T07:19:24;15.40;95.00
21895;DHT22;11112;51.270;7.224;2022-10-31T07:21:51;15.40;94.90
21895;DHT22;11112;51.270;7.224;2022-10-31T07:24:18;15.30;94.90
21895;DHT22;11112;51.270;7.224;2022-10-31T07:26:47;15.20;95.10
21895;DHT22;11112;51.270;7.224;2022-10-31T07:29:14;15.20;95.20
21895;DHT22;11112;51.270;7.224;2022-10-31T07:31:42;15.20;95.30
21895;DHT22;11112;51.270;7.224;2022-10-31T07:34:09;15.30;95.40
21895;DHT22;11112;51.270;7.224;2022-10-31T07:36:36;15.30;95.40
21895;DHT22;11112;51.270;7.224;2022-10-31T07:39:04;15.30;95.20
21895;DHT22;11112;51.270;7.224;2022-10-31T07:41:31;15.30;95.30
21895;DHT22;11112;51.270;7.224;2022-10-31T07:44:00;15.30;95.30
21895;DHT22;11112;51.270;7.224;2022-10-31T07:46:27;15.30;95.40
21895;DHT22;11112;51.270;7.224;2022-10-31T07:48:54;15.30;95.70
21895;DHT22;11112;51.270;7.224;2022-10-31T07:51:21;15.30;96.20
21895;DHT22;11112;51.270;7.224;2022-10-31T07:53:49;15.30;96.20
21895;DHT22;11112;51.270;7.224;2022-10-31T07:56:16;15.30;95.70
21895;DHT22;11112;51.270;7.224;2022-10-31T07:58:44;15.30;95.70
21895;DHT22;11112;51.270;7.224;2022-10-31T08:01:13;15.30;95.60
21895;DHT22;11112;51.270;7.224;2022-10-31T08:03:40;15.30;95.80
21895;DHT22;11112;51.270;7.224;2022-10-31T08:06:07;15.30;95.80
21895;DHT22;11112;51.270;7.224;2022-10-31T08:08:35;15.30;95.90
21895;DHT22;11112;51.270;7.224;2022-10-31T08:11:02;15.30;95.80
21895;DHT22;11112;51.270;7.224;2022-10-31T08:13:30;15.20;95.90
21895;DHT22;11112;51.270;7.224;2022-10-31T08:15:57;15.20;96.10
21895;DHT22;11112;51.270;7.224;2022-10-31T08:18:30;15.30;96.30
21895;DHT22;11112;51.270;7.224;2022-10-31T08:21:00;15.20;96.30
21895;DHT22;11112;51.270;7.224;2022-10-31T08:23:27;15.30;96.40
21895;DHT22;11112;51.270;7.224;2022-10-31T08:25:54;15.20;96.50
21895;DHT22;11112;51.270;7.224;2022-10-31T08:28:21;14.90;96.90
21895;DHT22;11112;51.270;7.224;2022-10-31T08:30:48;14.90;97.10
21895;DHT22;11112;51.270;7.224;2022-10-31T08:33:17;15.00;97.10
21895;DHT22;11112;51.270;7.224;2022-10-31T08:35:46;15.10;96.90
21895;DHT22;11112;51.270;7.224;2022-10-31T08:38:14;15.10;97.00
21895;DHT22;11112;51.270;7.224;2022-10-31T08:40:41;15.10;97.00
21895;DHT22;11112;51.270;7.224;2022-10-31T08:43:12;15.20;96.90
21895;DHT22;11112;51.270;7.224;2022-10-31T08:45:43;15.30;96.90
21895;DHT22;11112;51.270;7.224;2022-10-31T08:48:15;15.30;96.90
21895;DHT22;11112;51.270;7.224;2022-10-31T08:50:45;15.30;96.90
21895;DHT22;11112;51.270;7.224;2022-10-31T08:53:14;15.40;96.90
21895;DHT22;11112;51.270;7.224;2022-10-31T08:55:44;15.40;97.00
21895;DHT22;11112;51.270;7.224;2022-10-31T08:58:16;15.40;97.00
21895;DHT22;11112;51.270;7.224;2022-10-31T09:00:45;15.40;97.00
21895;DHT22;11112;51.270;7.224;2022-10-31T09:03:15;15.50;97.00
21895;DHT22;11112;51.270;7.224;2022-10-31T09:05:43;15.50;97.00
21895;DHT22;11112;51.270;7.224;2022-10-31T09:08:13;15.50;97.00
21895;DHT22;11112;51.270;7.224;2022-10-31T09:10:40;15.60;97.00
21895;DHT22;11112;51.270;7.224;2022-10-31T09:13:11;15.60;96.90
21895;DHT22;11112;51.270;7.224;2022-10-31T09:15:41;15.70;96.70
21895;DHT22;11112;51.270;7.224;2022-10-31T09:18:10;15.60;96.80
21895;DHT22;11112;51.270;7.224;2022-10-31T09:20:40;15.70;96.80
21895;DHT22;11112;51.270;7.224;2022-10-31T09:23:10;15.70;96.90
21895;DHT22;11112;51.270;7.224;2022-10-31T09:25:40;15.70;97.00
21895;DHT22;11112;51.270;7.224;2022-10-31T09:28:10;15.80;97.00
21895;DHT22;11112;51.270;7.224;2022-10-31T09:30:38;15.80;97.10
21895;DHT22;11112;51.270;7.224;2022-10-31T09:33:09;15.80;97.00
21895;DHT22;11112;51.270;7.224;2022-10-31T09:35:37;15.80;97.10
21895;DHT22;11112;51.270;7.224;2022-10-31T09:38:08;15.80;97.20
21895;DHT22;11112;51.270;7.224;2022-10-31T09:40:40;15.90;97.30
21895;DHT22;11112;51.270;7.224;2022-10-31T09:43:14;15.90;97.40
21895;DHT22;11112;51.270;7.224;2022-10-31T09:45:55;16.00;97.50
21895;DHT22;11112;51.270;7.224;2022-10-31T09:48:50;16.00;97.40
21895;DHT22;11112;51.270;7.224;2022-10-31T09:51:28;16.00;97.40
21895;DHT22;11112;51.270;7.224;2022-10-31T09:54:01;16.10;97.30
21895;DHT22;11112;51.270;7.224;2022-10-31T09:56:33;16.00;97.20
21895;DHT22;11112;51.270;7.224;2022-10-31T09:59:05;16.10;97.40
21895;DHT22;11112;51.270;7.224;2022-10-31T10:01:51;16.10;97.40
21895;DHT22;11112;51.270;7.224;2022-10-31T10:04:32;16.10;97.40
21895;DHT22;11112;51.270;7.224;2022-10-31T10:07:11;16.10;97.50
21895;DHT22;11112;51.270;7.224;2022-10-31T10:09:45;16.20;97.60
21895;DHT22;11112;51.270;7.224;2022-10-31T10:12:24;16.20;97.70
21895;DHT22;11112;51.270;7.224;2022-10-31T10:18:05;16.30;97.70
21895;DHT22;11112;51.270;7.224;2022-10-31T10:20:43;16.30;97.70
21895;DHT22;11112;51.270;7.224;2022-10-31T10:23:34;16.30;97.80
21895;DHT22;11112;51.270;7.224;2022-10-31T10:26:10;16.40;97.80
21895;DHT22;11112;51.270;7.224;2022-10-31T10:28:45;16.40;97.90
21895;DHT22;11112;51.270;7.224;2022-10-31T10:31:16;16.40;97.80
21895;DHT22;11112;51.270;7.224;2022-10-31T10:33:55;16.40;97.80
21895;DHT22;11112;51.270;7.224;2022-10-31T10:36:30;16.50;98.00
21895;DHT22;11112;51.270;7.224;2022-10-31T10:39:13;16.50;98.00
21895;DHT22;11112;51.270;7.224;2022-10-31T10:41:47;16.60;98.00
21895;DHT22;11112;51.270;7.224;2022-10-31T10:44:31;16.60;98.00
21895;DHT22;11112;51.270;7.224;2022-10-31T10:47:16;16.70;98.00
21895;DHT22;11112;51.270;7.224;2022-10-31T10:50:06;16.70;98.00
21895;DHT22;11112;51.270;7.224;2022-10-31T10:52:46;16.80;97.90
21895;DHT22;11112;51.270;7.224;2022-10-31T10:55:28;16.80;97.80
21895;DHT22;11112;51.270;7.224;2022-10-31T10:58:04;16.80;97.80
21895;DHT22;11112;51.270;7.224;2022-10-31T11:00:38;16.90;97.80
21895;DHT22;11112;51.270;7.224;2022-10-31T11:03:07;16.90;97.60
21895;DHT22;11112;51.270;7.224;2022-10-31T11:05:37;17.00;97.40
21895;DHT22;11112;51.270;7.224;2022-10-31T11:08:10;17.00;97.10
21895;DHT22;11112;51.270;7.224;2022-10-31T11:10:38;17.00;97.00
21895;DHT22;11112;51.270;7.224;2022-10-31T11:13:20;17.10;96.30
21895;DHT22;11112;51.270;7.224;2022-10-31T11:15:57;17.10;96.00
21895;DHT22;11112;51.270;7.224;2022-10-31T11:18:29;17.10;95.80
21895;DHT22;11112;51.270;7.224;2022-10-31T11:20:59;17.10;95.70
21895;DHT22;11112;51.270;7.224;2022-10-31T11:23:28;17.10;95.80
21895;DHT22;11112;51.270;7.224;2022-10-31T11:25:58;17.10;95.80
21895;DHT22;11112;51.270;7.224;2022-10-31T11:28:27;17.20;95.80
21895;DHT22;11112;51.270;7.224;2022-10-31T11:31:00;17.20;95.70
21895;DHT22;11112;51.270;7.224;2022-10-31T11:33:30;17.20;95.40
21895;DHT22;11112;51.270;7.224;2022-10-31T11:36:01;17.20;95.30
21895;DHT22;11112;51.270;7.224;2022-10-31T11:38:34;17.20;95.40
21895;DHT22;11112;51.270;7.224;2022-10-31T11:41:11;17.20;95.30
21895;DHT22;11112;51.270;7.224;2022-10-31T11:43:46;17.20;95.20
21895;DHT22;11112;51.270;7.224;2022-10-31T11:46:21;17.30;95.20
21895;DHT22;11112;51.270;7.224;2022-10-31T11:48:53;17.20;95.00
21895;DHT22;11112;51.270;7.224;2022-10-31T11:51:24;17.30;95.10
21895;DHT22;11112;51.270;7.224;2022-10-31T11:53:55;17.30;95.20
21895;DHT22;11112;51.270;7.224;2022-10-31T11:56:25;17.30;95.30
21895;DHT22;11112;51.270;7.224;2022-10-31T11:58:56;17.40;95.30
21895;DHT22;11112;51.270;7.224;2022-10-31T12:01:27;17.40;95.10
21895;DHT22;11112;51.270;7.224;2022-10-31T12:04:06;17.40;94.70
21895;DHT22;11112;51.270;7.224;2022-10-31T12:06:37;17.50;94.60
21895;DHT22;11112;51.270;7.224;2022-10-31T12:09:18;17.50;94.60
21895;DHT22;11112;51.270;7.224;2022-10-31T12:11:59;17.50;94.20
21895;DHT22;11112;51.270;7.224;2022-10-31T12:14:49;17.50;94.10
21895;DHT22;11112;51.270;7.224;2022-10-31T12:17:25;17.50;93.90
21895;DHT22;11112;51.270;7.224;2022-10-31T12:20:03;17.60;94.10
21895;DHT22;11112;51.270;7.224;2022-10-31T12:22:42;17.60;93.80
21895;DHT22;11112;51.270;7.224;2022-10-31T12:25:28;17.60;93.80
21895;DHT22;11112;51.270;7.224;2022-10-31T12:28:31;17.60;93.90
21895;DHT22;11112;51.270;7.224;2022-10-31T12:31:09;17.60;93.70
21895;DHT22;11112;51.270;7.224;2022-10-31T12:33:51;17.60;93.80
21895;DHT22;11112;51.270;7.224;2022-10-31T12:36:38;17.60;93.80
21895;DHT22;11112;51.270;7.224;2022-10-31T12:39:23;17.60;93.90
21895;DHT22;11112;51.270;7.224;2022-10-31T12:41:55;17.60;93.80
21895;DHT22;11112;51.270;7.224;2022-10-31T12:47:53;17.70;93.80
21895;DHT22;11112;51.270;7.224;2022-10-31T12:50:50;17.70;93.60
21895;DHT22;11112;51.270;7.224;2022-10-31T12:53:47;17.70;93.80
21895;DHT22;11112;51.270;7.224;2022-10-31T12:56:35;17.70;93.60
21895;DHT22;11112;51.270;7.224;2022-10-31T12:59:09;17.70;93.40
21895;DHT22;11112;51.270;7.224;2022-10-31T13:01:45;17.70;93.50
21895;DHT22;11112;51.270;7.224;2022-10-31T13:04:20;17.80;93.20
21895;DHT22;11112;51.270;7.224;2022-10-31T13:06:56;17.80;93.30
21895;DHT22;11112;51.270;7.224;2022-10-31T13:09:31;17.80;93.40
21895;DHT22;11112;51.270;7.224;2022-10-31T13:12:08;17.80;93.90
21895;DHT22;11112;51.270;7.224;2022-10-31T13:14:40;17.80;93.70
21895;DHT22;11112;51.270;7.224;2022-10-31T13:17:21;17.80;93.60
21895;DHT22;11112;51.270;7.224;2022-10-31T13:19:54;17.80;93.60
21895;DHT22;11112;51.270;7.224;2022-10-31T13:22:30;17.80;93.50
21895;DHT22;11112;51.270;7.224;2022-10-31T13:25:09;17.80;93.50
21895;DHT22;11112;51.270;7.224;2022-10-31T13:27:45;17.80;93.40
21895;DHT22;11112;51.270;7.224;2022-10-31T13:30:18;17.80;93.40
21895;DHT22;11112;51.270;7.224;2022-10-31T13:32:49;17.80;93.40
21895;DHT22;11112;51.270;7.224;2022-10-31T13:35:25;17.80;93.40
21895;DHT22;11112;51.270;7.224;2022-10-31T13:38:11;17.80;93.50
21895;DHT22;11112;51.270;7.224;2022-10-31T13:40:50;17.80;93.50
21895;DHT22;11112;51.270;7.224;2022-10-31T13:43:39;17.80;93.50
21895;DHT22;11112;51.270;7.224;2022-10-31T13:46:23;17.80;93.40
21895;DHT22;11112;51.270;7.224;2022-10-31T13:48:53;17.80;93.40
21895;DHT22;11112;51.270;7.224;2022-10-31T13:51:26;17.80;93.40
21895;DHT22;11112;51.270;7.224;2022-10-31T13:54:00;17.90;93.40
21895;DHT22;11112;51.270;7.224;2022-10-31T13:56:29;17.90;93.30
21895;DHT22;11112;51.270;7.224;2022-10-31T13:59:04;17.90;93.30
21895;DHT22;11112;51.270;7.224;2022-10-31T14:01:50;17.90;93.40
21895;DHT22;11112;51.270;7.224;2022-10-31T14:04:22;17.90;93.20
21895;DHT22;11112;51.270;7.224;2022-10-31T14:07:04;17.90;93.30
21895;DHT22;11112;51.270;7.224;2022-10-31T14:09:36;17.90;93.30
21895;DHT22;11112;51.270;7.224;2022-10-31T14:12:08;17.90;93.20
21895;DHT22;11112;51.270;7.224;2022-10-31T14:14:46;17.90;93.30
21895;DHT22;11112;51.270;7.224;2022-10-31T14:17:21;17.90;93.50
21895;DHT22;11112;51.270;7.224;2022-10-31T14:20:03;17.90;93.50
21895;DHT22;11112;51.270;7.224;2022-10-31T14:22:49;17.90;93.50
21895;DHT22;11112;51.270;7.224;2022-10-31T14:25:31;17.90;93.60
21895;DHT22;11112;51.270;7.224;2022-10-31T14:28:00;17.90;93.70
21895;DHT22;11112;51.270;7.224;2022-10-31T14:30:30;17.90;93.80
21895;DHT22;11112;51.270;7.224;2022-10-31T14:32:59;17.90;93.70
21895;DHT22;11112;51.270;7.224;2022-10-31T14:35:42;17.90;93.80
21895;DHT22;11112;51.270;7.224;2022-10-31T14:41:40;17.90;93.70
21895;DHT22;11112;51.270;7.224;2022-10-31T14:44:38;17.90;93.60
21895;DHT22;11112;51.270;7.224;2022-10-31T14:47:20;17.90;93.70
21895;DHT22;11112;51.270;7.224;2022-10-31T14:50:09;17.90;93.80
21895;DHT22;11112;51.270;7.224;2022-10-31T14:52:47;17.90;93.80
21895;DHT22;11112;51.270;7.224;2022-10-31T14:55:17;17.90;93.80
21895;DHT22;11112;51.270;7.224;2022-10-31T14:57:50;17.90;93.80
21895;DHT22;11112;51.270;7.224;2022-10-31T15:00:21;17.90;93.80
21895;DHT22;11112;51.270;7.224;2022-10-31T15:02:57;17.90;93.70
21895;DHT22;11112;51.270;7.224;2022-10-31T15:05:32;17.90;93.60
21895;DHT22;11112;51.270;7.224;2022-10-31T15:07:59;17.90;93.60
21895;DHT22;11112;51.270;7.224;2022-10-31T15:10:29;17.90;93.20
21895;DHT22;11112;51.270;7.224;2022-10-31T15:13:17;17.90;93.00
21895;DHT22;11112;51.270;7.224;2022-10-31T15:15:46;17.90;93.10
21895;DHT22;11112;51.270;7.224;2022-10-31T15:18:17;17.90;93.00
21895;DHT22;11112;51.270;7.224;2022-10-31T15:20:46;17.90;93.00
21895;DHT22;11112;51.270;7.224;2022-10-31T15:23:16;17.90;92.90
21895;DHT22;11112;51.270;7.224;2022-10-31T15:25:47;17.90;92.70
21895;DHT22;11112;51.270;7.224;2022-10-31T15:28:22;17.90;92.30
21895;DHT22;11112;51.270;7.224;2022-10-31T15:30:51;17.90;92.00
21895;DHT22;11112;51.270;7.224;2022-10-31T15:33:23;17.90;91.90
21895;DHT22;11112;51.270;7.224;2022-10-31T15:35:55;18.00;92.00
21895;DHT22;11112;51.270;7.224;2022-10-31T15:38:25;17.90;91.90
21895;DHT22;11112;51.270;7.224;2022-10-31T15:40:56;17.90;91.80
21895;DHT22;11112;51.270;7.224;2022-10-31T15:43:29;17.90;91.70
21895;DHT22;11112;51.270;7.224;2022-10-31T15:46:01;17.90;91.60
21895;DHT22;11112;51.270;7.224;2022-10-31T15:48:29;17.90;91.40
21895;DHT22;11112;51.270;7.224;2022-10-31T15:50:58;17.90;91.40
21895;DHT22;11112;51.270;7.224;2022-10-31T15:53:29;18.00;91.40
21895;DHT22;11112;51.270;7.224;2022-10-31T15:56:04;17.90;91.30
21895;DHT22;11112;51.270;7.224;2022-10-31T15:58:41;17.90;91.40
21895;DHT22;11112;51.270;7.224;2022-10-31T16:01:21;17.90;91.40
21895;DHT22;11112;51.270;7.224;2022-10-31T16:04:21;17.90;91.40
21895;DHT22;11112;51.270;7.224;2022-10-31T16:06:59;17.90;91.50
21895;DHT22;11112;51.270;7.224;2022-10-31T16:09:27;17.90;91.40
21895;DHT22;11112;51.270;7.224;2022-10-31T16:11:56;17.90;91.40
21895;DHT22;11112;51.270;7.224;2022-10-31T16:14:28;17.80;91.30
21895;DHT22;11112;51.270;7.224;2022-10-31T16:17:01;17.80;91.30